Terminal Aerodrome Forecast
Issued by NWS

Home | Current Version | Previous Version | Graphics & Text | Print | Product List | Glossary On
Versions: 1 2 3 4 5 6 7 8 9 10 11 12 13 14 15 16 17 18
000
FTUS43 KGRB 232333
TAFMTW
TAF
KMTW 232333Z 2400/2424 21006KT P6SM SKC
      TEMPO 2405/2407 BKN080
     FM240700 21011G18KT P6SM BKN100 WS015/24045KT
     FM241500 20016G25KT P6SM BKN120
     FM242300 23012G21KT P6SM VCSH BKN090=

USA.gov is the U.S. government's official web portal to all federal, state and local government web resources and services.